Time;durP1;ratioP1;P1;durP2;ratioP2;P2;SDS_P1;SDS_P2;PMS_P1;PMS_P2;Temp;Humidity;BMP_temperature;BMP_pressure;BME280_temperature;BME280_humidity;BME280_pressure;Samples;Min_cycle;Max_cycle;Signal;HPM_P1;HPM_P2
2021/03/04 00:01:12;;;;;;;;;;;;;;;21.88;25.20;98900.97;5062115;28;658;-74
2021/03/04 00:03:38;;;;;;;;;;;;;;;22.32;24.43;98886.56;5061797;28;1018;-74
2021/03/04 00:06:03;;;;;;;;;;;;;;;22.47;24.26;98886.34;5061681;28;853;-74
2021/03/04 00:08:29;;;;;;;;;;;;;;;22.30;24.38;98888.25;5061935;28;835;-74
2021/03/04 00:10:54;;;;;;;;;;;;;;;21.93;24.50;98875.00;5062004;28;607;-74
2021/03/04 00:13:20;;;;;;;;;;;;;;;21.69;24.96;98880.56;5061802;28;670;-74
2021/03/04 00:15:45;;;;;;;;;;;;;;;21.68;25.57;98881.81;5061775;28;1906;-74
2021/03/04 00:18:11;;;;;;;;;;;;;;;22.27;24.53;98872.88;5061297;28;1005;-74
2021/03/04 00:20:36;;;;;;;;;;;;;;;22.51;24.11;98870.09;5061158;28;864;-75
2021/03/04 00:23:02;;;;;;;;;;;;;;;22.44;24.23;98871.00;5061246;28;948;-74
2021/03/04 00:25:33;;;;;;;;;;;;;;;21.90;24.68;98858.84;5061417;28;717;-74
2021/03/04 00:27:59;;;;;;;;;;;;;;;21.64;25.28;98864.03;5061395;28;626;-74
2021/03/04 00:30:24;;;;;;;;;;;;;;;21.81;24.79;98854.53;5060364;28;683;-74
2021/03/04 00:32:50;;;;;;;;;;;;;;;22.05;24.87;98838.38;5060845;28;1026;-74
2021/03/04 00:35:15;;;;;;;;;;;;;;;22.43;24.30;98845.91;5060911;28;1910;-75
2021/03/04 00:37:41;;;;;;;;;;;;;;;22.74;23.82;98849.41;5061305;28;818;-75
2021/03/04 00:40:07;;;;;;;;;;;;;;;22.25;24.29;98837.69;5061022;28;629;-75
2021/03/04 00:42:32;;;;;;;;;;;;;;;21.69;24.84;98826.75;5061377;28;634;-74
2021/03/04 00:44:58;;;;;;;;;;;;;;;21.69;25.10;98823.13;5060917;28;674;-74
2021/03/04 00:47:23;;;;;;;;;;;;;;;21.68;25.35;98825.16;5060917;28;836;-74
2021/03/04 00:49:49;;;;;;;;;;;;;;;21.54;25.35;98820.47;5060682;28;964;-74
2021/03/04 00:52:14;;;;;;;;;;;;;;;21.45;25.49;98816.56;5061011;28;853;-74
2021/03/04 00:54:40;;;;;;;;;;;;;;;21.38;25.68;98822.31;5060768;28;1036;-74
2021/03/04 00:57:05;;;;;;;;;;;;;;;22.16;24.42;98809.88;5060804;28;1894;-74
2021/03/04 00:59:31;;;;;;;;;;;;;;;22.45;24.17;98809.44;5060497;28;966;-75
2021/03/04 01:01:56;;;;;;;;;;;;;;;22.68;23.82;98806.56;5060342;28;863;-75
2021/03/04 01:04:21;;;;;;;;;;;;;;;21.90;24.64;98802.19;5060982;28;933;-74
2021/03/04 01:06:47;;;;;;;;;;;;;;;21.54;25.50;98802.69;5060703;28;790;-75
2021/03/04 01:09:12;;;;;;;;;;;;;;;21.67;25.06;98795.22;5060503;28;828;-74
2021/03/04 01:11:38;;;;;;;;;;;;;;;22.08;24.67;98794.22;5060912;28;648;-74
2021/03/04 01:14:03;;;;;;;;;;;;;;;22.28;24.40;98795.13;5060405;28;618;-75
2021/03/04 01:16:29;;;;;;;;;;;;;;;22.52;24.00;98798.75;5059926;28;1898;-75
2021/03/04 01:18:54;;;;;;;;;;;;;;;22.25;24.17;98798.81;5060166;28;892;-75
2021/03/04 01:21:20;;;;;;;;;;;;;;;21.87;24.50;98791.72;5060518;28;834;-75
2021/03/04 01:23:45;;;;;;;;;;;;;;;21.81;24.93;98783.69;5060237;28;602;-75
2021/03/04 01:26:11;;;;;;;;;;;;;;;21.67;25.25;98789.56;5060404;28;626;-75
2021/03/04 01:28:36;;;;;;;;;;;;;;;21.79;25.27;98786.13;5060568;28;708;-75
2021/03/04 01:31:02;;;;;;;;;;;;;;;22.34;24.27;98784.88;5060228;28;979;-74
2021/03/04 01:33:27;;;;;;;;;;;;;;;22.55;24.25;98780.06;5059981;28;923;-75
2021/03/04 01:35:53;;;;;;;;;;;;;;;22.61;23.89;98775.50;5060265;28;1973;-75
2021/03/04 01:38:18;;;;;;;;;;;;;;;22.62;23.88;98785.59;5060031;28;654;-75
2021/03/04 01:40:44;;;;;;;;;;;;;;;22.10;24.38;98775.56;5060353;28;607;-75
2021/03/04 01:43:10;;;;;;;;;;;;;;;21.24;25.83;98775.97;5060335;28;599;-75
2021/03/04 01:45:35;;;;;;;;;;;;;;;21.89;25.20;98772.25;5075956;28;1031;-75
2021/03/04 01:48:01;;;;;;;;;;;;;;;21.88;25.32;98765.78;5060081;28;873;-75
2021/03/04 01:50:27;;;;;;;;;;;;;;;22.33;24.56;98769.13;5059898;28;827;-74
2021/03/04 01:52:52;;;;;;;;;;;;;;;22.52;23.96;98758.25;5060177;28;667;-74
2021/03/04 01:55:18;;;;;;;;;;;;;;;22.33;24.17;98751.31;5059877;28;1963;-74
2021/03/04 01:57:43;;;;;;;;;;;;;;;21.90;24.78;98756.84;5060358;28;644;-74
2021/03/04 02:00:09;;;;;;;;;;;;;;;21.71;25.04;98739.34;5059400;28;1138;-75
2021/03/04 02:02:35;;;;;;;;;;;;;;;21.85;24.96;98743.97;5060268;28;836;-74
2021/03/04 02:05:00;;;;;;;;;;;;;;;22.07;24.80;98735.91;5059839;28;906;-74
2021/03/04 02:07:44;;;;;;;;;;;;;;;22.46;24.24;98740.13;5059815;28;748;-74
2021/03/04 02:10:16;;;;;;;;;;;;;;;22.40;24.33;98744.69;5059918;28;674;-74
2021/03/04 02:13:02;;;;;;;;;;;;;;;21.78;25.03;98739.22;5075677;28;658;-74
2021/03/04 02:15:28;;;;;;;;;;;;;;;21.31;25.69;98741.94;5048944;28;1973;-74
2021/03/04 02:17:54;;;;;;;;;;;;;;;21.77;25.10;98742.50;5059325;28;894;-73
2021/03/04 02:20:22;;;;;;;;;;;;;;;22.00;24.74;98744.53;5075647;28;669;-74
2021/03/04 02:23:06;;;;;;;;;;;;;;;22.48;24.33;98740.47;5059693;28;575;-74
2021/03/04 02:25:51;;;;;;;;;;;;;;;22.46;24.38;98732.41;5059567;28;672;-74
2021/03/04 02:28:16;;;;;;;;;;;;;;;22.07;24.66;98733.06;5059585;28;629;-74
2021/03/04 02:30:42;;;;;;;;;;;;;;;21.65;25.29;98726.88;5075551;28;941;-74
2021/03/04 02:33:14;;;;;;;;;;;;;;;21.76;25.15;98713.38;5059682;28;871;-74
2021/03/04 02:35:39;;;;;;;;;;;;;;;21.91;25.27;98724.44;5059729;28;1972;-74
2021/03/04 02:38:06;;;;;;;;;;;;;;;22.38;24.48;98721.63;5059521;28;651;-74
2021/03/04 02:40:32;;;;;;;;;;;;;;;22.49;23.99;98713.75;5075770;28;733;-74
2021/03/04 02:42:57;;;;;;;;;;;;;;;22.22;24.44;98713.81;5075554;28;689;-74
2021/03/04 02:45:24;;;;;;;;;;;;;;;21.66;24.87;98714.34;5059038;28;1052;-74
2021/03/04 02:47:50;;;;;;;;;;;;;;;21.76;24.94;98707.69;5075520;28;890;-74
2021/03/04 02:50:15;;;;;;;;;;;;;;;22.00;25.03;98710.53;5059532;28;955;-74
2021/03/04 02:52:41;;;;;;;;;;;;;;;22.35;24.25;98704.25;5076430;28;662;-74
2021/03/04 02:55:06;;;;;;;;;;;;;;;22.56;24.01;98707.94;5063044;28;602;-74
2021/03/04 02:57:32;;;;;;;;;;;;;;;22.49;24.23;98713.75;5079087;28;1910;-74
2021/03/04 02:59:57;;;;;;;;;;;;;;;21.50;25.13;98708.47;5078571;28;1055;-74
2021/03/04 03:02:23;;;;;;;;;;;;;;;21.89;24.81;98712.75;5062643;28;878;-74
2021/03/04 03:04:48;;;;;;;;;;;;;;;21.64;25.34;98711.09;5078753;28;969;-74
2021/03/04 03:07:14;;;;;;;;;;;;;;;21.96;25.08;98712.63;5079183;28;637;-75
2021/03/04 03:09:41;;;;;;;;;;;;;;;22.33;24.58;98706.75;5079085;28;621;-74
2021/03/04 03:12:06;;;;;;;;;;;;;;;22.58;23.95;98711.13;5078724;28;654;-74
2021/03/04 03:14:32;;;;;;;;;;;;;;;22.50;24.15;98698.34;5078375;28;880;-74
2021/03/04 03:16:58;;;;;;;;;;;;;;;22.05;24.53;98701.53;5062874;28;1905;-74
2021/03/04 03:19:24;;;;;;;;;;;;;;;21.41;25.61;98696.91;5062992;28;842;-74
2021/03/04 03:21:49;;;;;;;;;;;;;;;21.81;25.06;98693.03;5062626;28;682;-74
2021/03/04 03:24:15;;;;;;;;;;;;;;;22.21;24.88;98686.72;5063010;28;649;-74
2021/03/04 03:26:40;;;;;;;;;;;;;;;22.44;24.38;98688.72;5062787;28;599;-75
2021/03/04 03:29:06;;;;;;;;;;;;;;;22.55;23.84;98677.97;5062681;28;1025;-75
2021/03/04 03:31:31;;;;;;;;;;;;;;;21.98;24.88;98681.84;5062162;28;950;-75
2021/03/04 03:33:57;;;;;;;;;;;;;;;21.62;25.06;98678.78;5062560;28;1036;-75
2021/03/04 03:36:22;;;;;;;;;;;;;;;21.49;25.17;98670.09;5078252;28;1959;-75
2021/03/04 03:38:48;;;;;;;;;;;;;;;22.16;24.95;98668.16;5062512;28;721;-74
2021/03/04 03:41:13;;;;;;;;;;;;;;;22.44;24.49;98668.88;5078245;28;672;-74
2021/03/04 03:43:39;;;;;;;;;;;;;;;22.54;24.31;98665.03;5077936;28;910;-75
2021/03/04 03:46:04;;;;;;;;;;;;;;;22.35;24.25;98670.25;5078192;28;926;-75
2021/03/04 03:48:30;;;;;;;;;;;;;;;21.67;24.90;98653.63;5077965;28;964;-74
2021/03/04 03:50:55;;;;;;;;;;;;;;;21.60;25.15;98662.22;5078448;28;725;-74
2021/03/04 03:53:21;;;;;;;;;;;;;;;21.66;25.45;98657.69;5062086;28;682;-74
2021/03/04 03:55:49;;;;;;;;;;;;;;;21.64;25.25;98648.00;5078171;28;1975;-73
2021/03/04 03:58:16;;;;;;;;;;;;;;;21.91;25.26;98650.78;5077874;28;990;-74
2021/03/04 04:00:41;;;;;;;;;;;;;;;22.34;24.57;98645.97;5062058;28;1021;-73
2021/03/04 04:03:07;;;;;;;;;;;;;;;22.53;24.33;98640.72;5061653;28;889;-74
2021/03/04 04:05:32;;;;;;;;;;;;;;;22.23;24.41;98645.38;5076442;28;1417;-74
2021/03/04 04:07:58;;;;;;;;;;;;;;;21.87;25.22;98639.53;5078044;28;654;-74
2021/03/04 04:10:24;;;;;;;;;;;;;;;21.72;25.00;98643.84;5061887;28;627;-74
2021/03/04 04:12:49;;;;;;;;;;;;;;;21.71;25.52;98648.69;5061246;28;1019;-74
2021/03/04 04:15:15;;;;;;;;;;;;;;;22.19;24.61;98641.81;5061628;28;854;-74
2021/03/04 04:17:40;;;;;;;;;;;;;;;22.42;24.37;98645.81;5061312;28;1909;-74
2021/03/04 04:20:06;;;;;;;;;;;;;;;22.56;24.25;98639.88;5076971;28;753;-74
2021/03/04 04:22:31;;;;;;;;;;;;;;;22.00;24.69;98642.53;5061504;28;706;-74
2021/03/04 04:24:57;;;;;;;;;;;;;;;21.97;24.69;98641.38;5077586;28;627;-74
2021/03/04 04:27:23;;;;;;;;;;;;;;;21.83;24.95;98645.25;5077559;28;964;-74
2021/03/04 04:29:48;;;;;;;;;;;;;;;21.75;25.11;98632.44;5061076;28;866;-74
2021/03/04 04:32:14;;;;;;;;;;;;;;;21.66;25.41;98623.69;5061136;28;974;-74
2021/03/04 04:34:39;;;;;;;;;;;;;;;21.77;25.22;98629.97;5077348;28;1228;-75
2021/03/04 04:37:04;;;;;;;;;;;;;;;22.15;24.95;98617.59;5061239;28;1985;-77
2021/03/04 04:39:30;;;;;;;;;;;;;;;22.54;24.27;98616.81;5061652;28;595;-77
2021/03/04 04:41:55;;;;;;;;;;;;;;;22.32;24.47;98617.22;5061254;28;955;-74
2021/03/04 04:44:21;;;;;;;;;;;;;;;22.03;24.90;98613.34;5060815;28;841;-74
2021/03/04 04:46:47;;;;;;;;;;;;;;;21.85;24.72;98605.94;5060797;28;818;-75
2021/03/04 04:49:12;;;;;;;;;;;;;;;21.78;25.15;98597.59;5060852;28;657;-74
2021/03/04 04:51:38;;;;;;;;;;;;;;;21.82;25.58;98615.31;5061277;28;675;-75
2021/03/04 04:54:04;;;;;;;;;;;;;;;22.22;24.86;98609.72;5060910;28;676;-74
2021/03/04 04:56:29;;;;;;;;;;;;;;;22.55;24.30;98601.41;5060696;28;1906;-75
2021/03/04 04:58:55;;;;;;;;;;;;;;;22.27;24.47;98600.72;5060225;28;1088;-74
2021/03/04 05:01:21;;;;;;;;;;;;;;;21.63;25.04;98595.44;5060988;28;821;-75
2021/03/04 05:03:46;;;;;;;;;;;;;;;21.66;25.47;98603.88;5060621;28;674;-75
2021/03/04 05:06:12;;;;;;;;;;;;;;;21.60;25.95;98599.91;5060589;28;714;-75
2021/03/04 05:08:37;;;;;;;;;;;;;;;22.33;24.70;98599.00;5060934;28;626;-75
2021/03/04 05:11:02;;;;;;;;;;;;;;;22.53;24.41;98595.34;5060199;28;917;-75
2021/03/04 05:13:28;;;;;;;;;;;;;;;22.14;24.43;98594.13;5060161;28;829;-75
2021/03/04 05:15:53;;;;;;;;;;;;;;;21.96;24.82;98599.28;5060252;28;1909;-74
2021/03/04 05:18:19;;;;;;;;;;;;;;;21.89;24.99;98590.91;5060405;28;678;-74
2021/03/04 05:20:44;;;;;;;;;;;;;;;22.09;25.05;98591.75;5060648;28;661;-74
2021/03/04 05:23:10;;;;;;;;;;;;;;;22.32;24.50;98600.22;5060684;28;726;-74
2021/03/04 05:25:35;;;;;;;;;;;;;;;22.61;24.22;98591.94;5060280;28;851;-75
2021/03/04 05:28:00;;;;;;;;;;;;;;;22.40;24.12;98597.25;5059943;28;915;-75
2021/03/04 05:30:26;;;;;;;;;;;;;;;21.98;24.76;98591.16;5060561;28;974;-74
2021/03/04 05:32:52;;;;;;;;;;;;;;;21.61;25.43;98589.41;5060152;28;666;-74
2021/03/04 05:35:17;;;;;;;;;;;;;;;21.69;25.45;98591.66;5060484;28;661;-74
2021/03/04 05:37:43;;;;;;;;;;;;;;;22.09;24.91;98591.75;5060475;28;1906;-74
2021/03/04 05:40:08;;;;;;;;;;;;;;;22.41;24.29;98598.84;5059834;28;929;-74
2021/03/04 05:42:34;;;;;;;;;;;;;;;22.62;24.35;98589.88;5059934;28;928;-74
2021/03/04 05:44:59;;;;;;;;;;;;;;;22.04;24.67;98593.06;5060098;28;1059;-74
2021/03/04 05:47:25;;;;;;;;;;;;;;;21.84;25.00;98590.19;5076295;28;631;-74
2021/03/04 05:49:55;;;;;;;;;;;;;;;21.75;25.18;98592.78;5076014;28;658;-75
2021/03/04 05:52:21;;;;;;;;;;;;;;;21.81;25.32;98582.56;5075395;28;788;-75
2021/03/04 05:54:46;;;;;;;;;;;;;;;21.74;25.64;98585.50;5060029;28;1002;-75
2021/03/04 05:57:12;;;;;;;;;;;;;;;21.59;25.82;98578.50;5059532;28;1972;-74
2021/03/04 05:59:38;;;;;;;;;;;;;;;21.49;25.54;98587.97;5059732;28;1141;-74
2021/03/04 06:02:07;;;;;;;;;;;;;;;21.99;25.36;98584.25;5060313;28;653;-74
2021/03/04 06:04:32;;;;;;;;;;;;;;;22.47;24.26;98588.59;5060161;28;634;-74
2021/03/04 06:06:58;;;;;;;;;;;;;;;22.39;24.55;98587.16;5076097;28;606;-75
2021/03/04 06:09:23;;;;;;;;;;;;;;;21.87;25.32;98570.75;5059875;28;1021;-74
2021/03/04 06:11:49;;;;;;;;;;;;;;;21.65;25.71;98582.44;5059565;28;991;-75
2021/03/04 06:14:14;;;;;;;;;;;;;;;21.56;25.79;98580.16;5059637;28;1003;-74
2021/03/04 06:16:40;;;;;;;;;;;;;;;22.10;24.83;98579.19;5059688;28;1913;-74
2021/03/04 06:19:05;;;;;;;;;;;;;;;22.45;24.68;98574.06;5059704;28;730;-74
2021/03/04 06:21:31;;;;;;;;;;;;;;;22.60;24.32;98561.97;5059701;28;642;-74
2021/03/04 06:23:57;;;;;;;;;;;;;;;22.39;24.24;98555.97;5059419;28;820;-74
2021/03/04 06:26:37;;;;;;;;;;;;;;;21.71;25.33;98558.06;5059648;28;931;-75
2021/03/04 06:29:12;;;;;;;;;;;;;;;21.67;25.24;98560.16;5062947;28;748;-75
2021/03/04 06:31:38;;;;;;;;;;;;;;;21.83;25.41;98559.47;5063688;28;654;-75
2021/03/04 06:34:13;;;;;;;;;;;;;;;22.31;24.72;98561.78;5063703;28;558;-74
2021/03/04 06:36:39;;;;;;;;;;;;;;;22.73;24.11;98556.41;5063591;28;1938;-75
2021/03/04 06:39:04;;;;;;;;;;;;;;;22.13;24.72;98554.88;5063333;28;945;-74
2021/03/04 06:41:30;;;;;;;;;;;;;;;21.94;25.06;98559.25;5063200;28;962;-74
2021/03/04 06:43:59;;;;;;;;;;;;;;;21.36;25.79;98559.47;5079126;28;971;-74
2021/03/04 06:46:25;;;;;;;;;;;;;;;21.77;25.31;98553.50;5063208;28;643;-75
2021/03/04 06:48:51;;;;;;;;;;;;;;;21.90;25.28;98558.53;5063328;28;646;-74
2021/03/04 06:51:16;;;;;;;;;;;;;;;22.32;24.47;98566.19;5063461;28;596;-74
2021/03/04 06:53:48;;;;;;;;;;;;;;;22.58;24.23;98546.63;5062817;28;1027;-74
2021/03/04 06:56:14;;;;;;;;;;;;;;;22.27;24.50;98560.25;5062974;28;1967;-75
2021/03/04 06:58:39;;;;;;;;;;;;;;;21.91;25.10;98560.13;5062969;28;1189;-74
2021/03/04 07:01:08;;;;;;;;;;;;;;;21.77;25.49;98550.66;5062971;28;654;-74
2021/03/04 07:03:43;;;;;;;;;;;;;;;22.14;24.97;98550.81;5062861;28;746;-74
2021/03/04 07:06:09;;;;;;;;;;;;;;;22.45;24.33;98542.88;5062964;28;645;-74
2021/03/04 07:08:39;;;;;;;;;;;;;;;22.63;24.08;98546.09;5062926;28;853;-74
2021/03/04 07:11:05;;;;;;;;;;;;;;;22.14;24.67;98540.25;5078829;28;852;-74
2021/03/04 07:13:31;;;;;;;;;;;;;;;21.65;25.20;98537.13;5062970;28;766;-74
2021/03/04 07:15:59;;;;;;;;;;;;;;;21.85;25.39;98540.78;5062964;28;1982;-75
2021/03/04 07:18:24;;;;;;;;;;;;;;;21.78;25.57;98538.09;5063003;28;622;-74
2021/03/04 07:20:50;;;;;;;;;;;;;;;22.25;24.81;98523.84;5062920;28;778;-75
2021/03/04 07:23:15;;;;;;;;;;;;;;;22.50;24.45;98522.50;5062189;28;1064;-74
2021/03/04 07:25:41;;;;;;;;;;;;;;;22.55;24.24;98517.13;5062641;28;806;-75
2021/03/04 07:28:06;;;;;;;;;;;;;;;22.12;25.03;98520.03;5062382;28;872;-74
2021/03/04 07:30:32;;;;;;;;;;;;;;;22.03;24.90;98522.66;5078462;28;598;-75
2021/03/04 07:32:57;;;;;;;;;;;;;;;21.94;25.29;98513.94;5062801;28;578;-74
2021/03/04 07:35:22;;;;;;;;;;;;;;;21.85;25.42;98514.50;5078454;28;705;-74
2021/03/04 07:37:48;;;;;;;;;;;;;;;21.43;26.02;98516.88;5062224;28;1974;-74
2021/03/04 07:40:14;;;;;;;;;;;;;;;21.88;25.59;98521.34;5078030;28;919;-74
2021/03/04 07:42:39;;;;;;;;;;;;;;;22.40;24.78;98515.03;5062138;28;908;-74
2021/03/04 07:45:13;;;;;;;;;;;;;;;22.54;24.55;98514.72;5062202;28;693;-74
2021/03/04 07:47:38;;;;;;;;;;;;;;;21.85;25.47;98506.78;5062106;28;663;-75
2021/03/04 07:50:13;;;;;;;;;;;;;;;21.93;25.33;98501.00;5061441;28;727;-74
2021/03/04 07:52:39;;;;;;;;;;;;;;;21.76;25.46;98498.09;5061746;28;897;-75
2021/03/04 07:55:11;;;;;;;;;;;;;;;22.03;25.39;98488.66;5077655;28;884;-74
2021/03/04 07:57:46;;;;;;;;;;;;;;;22.35;24.75;98488.00;5061822;28;1984;-74
2021/03/04 08:00:12;;;;;;;;;;;;;;;22.49;24.32;98486.88;5061716;28;986;-74
2021/03/04 08:02:38;;;;;;;;;;;;;;;20.29;25.05;98217.00;5061912;28;598;-74
2021/03/04 08:05:04;;;;;;;;;;;;;;;21.87;25.12;98478.03;5062484;28;678;-75
2021/03/04 08:07:29;;;;;;;;;;;;;;;21.75;25.63;98485.13;5061387;28;926;-74
2021/03/04 08:10:27;;;;;;;;;;;;;;;21.55;25.92;98487.13;5061440;28;886;-74
2021/03/04 08:12:53;;;;;;;;;;;;;;;21.99;25.08;98470.91;5028665;28;1164;-74
2021/03/04 08:15:19;;;;;;;;;;;;;;;22.48;24.61;98462.56;5061599;28;627;-75
2021/03/04 08:17:45;;;;;;;;;;;;;;;22.59;24.25;98461.13;5061757;28;1926;-74
2021/03/04 08:20:10;;;;;;;;;;;;;;;22.02;25.17;98441.69;5061721;28;599;-75
2021/03/04 08:22:40;;;;;;;;;;;;;;;21.99;24.97;98453.91;5061164;28;825;-74
2021/03/04 08:25:13;;;;;;;;;;;;;;;21.79;25.44;98449.03;5061143;28;973;-74
2021/03/04 08:27:39;;;;;;;;;;;;;;;21.68;25.58;98453.34;5061338;28;835;-74
2021/03/04 08:30:05;;;;;;;;;;;;;;;22.13;24.93;98450.81;5077542;28;629;-75
2021/03/04 08:32:30;;;;;;;;;;;;;;;22.52;24.37;98441.41;5061364;28;659;-74
2021/03/04 08:34:56;;;;;;;;;;;;;;;22.59;24.49;98446.13;5061201;28;694;-75
2021/03/04 08:37:22;;;;;;;;;;;;;;;22.12;24.78;98439.91;5060853;28;1898;-75
2021/03/04 08:39:48;;;;;;;;;;;;;;;22.06;24.98;98442.41;5060890;28;920;-74
2021/03/04 08:42:13;;;;;;;;;;;;;;;21.58;25.71;98440.97;5060947;28;871;-74
2021/03/04 08:44:48;;;;;;;;;;;;;;;21.82;25.44;98422.69;5061309;28;632;-75
2021/03/04 08:47:15;;;;;;;;;;;;;;;21.54;25.92;98440.25;5060966;28;678;-74
2021/03/04 08:49:45;;;;;;;;;;;;;;;21.70;25.64;98431.03;5061246;28;652;-74
2021/03/04 08:52:10;;;;;;;;;;;;;;;21.61;25.76;98434.47;5076170;28;1324;-74
2021/03/04 08:54:37;;;;;;;;;;;;;;;21.74;25.72;98421.22;5076503;28;935;-74
2021/03/04 08:57:05;;;;;;;;;;;;;;;22.32;24.96;98427.28;5060669;28;1995;-75
2021/03/04 08:59:30;;;;;;;;;;;;;;;22.43;24.61;98420.56;5061037;28;1117;-74
2021/03/04 09:01:56;;;;;;;;;;;;;;;22.41;24.55;98417.38;5060719;28;630;-74
2021/03/04 09:04:22;;;;;;;;;;;;;;;22.01;25.34;98423.09;5060973;28;611;-75
2021/03/04 09:06:47;;;;;;;;;;;;;;;21.70;25.66;98419.69;5060731;28;971;-74
2021/03/04 09:09:20;;;;;;;;;;;;;;;21.51;26.00;98409.97;5060544;28;947;-74
2021/03/04 09:11:45;;;;;;;;;;;;;;;22.22;24.96;98410.50;5060501;28;893;-75
2021/03/04 09:14:11;;;;;;;;;;;;;;;22.50;24.45;98404.19;5060895;28;637;-75
2021/03/04 09:16:37;;;;;;;;;;;;;;;22.58;24.35;98399.13;5060539;28;1955;-75
2021/03/04 09:19:02;;;;;;;;;;;;;;;22.12;24.72;98389.69;5060635;28;675;-75
2021/03/04 09:21:28;;;;;;;;;;;;;;;21.68;25.52;98394.66;5060344;28;964;-75
2021/03/04 09:23:53;;;;;;;;;;;;;;;21.74;25.55;98392.91;5076149;28;853;-74
2021/03/04 09:26:19;;;;;;;;;;;;;;;21.54;25.87;98389.28;5060253;28;980;-74
2021/03/04 09:28:44;;;;;;;;;;;;;;;21.89;25.57;98393.41;5076237;28;658;-74
2021/03/04 09:31:13;;;;;;;;;;;;;;;22.27;25.09;98387.31;5075993;28;797;-74
2021/03/04 09:33:39;;;;;;;;;;;;;;;22.43;24.49;98392.22;5060426;28;602;-75
2021/03/04 09:36:05;;;;;;;;;;;;;;;22.16;24.95;98401.75;5059811;28;1894;-75
2021/03/04 09:38:32;;;;;;;;;;;;;;;21.97;25.02;98389.19;5076221;28;914;-74
2021/03/04 09:41:17;;;;;;;;;;;;;;;21.82;25.37;98380.19;5059947;28;917;-75
2021/03/04 09:43:43;;;;;;;;;;;;;;;21.83;25.35;98378.97;5059903;28;1541;-74
2021/03/04 09:46:08;;;;;;;;;;;;;;;21.61;25.87;98374.19;5059982;28;686;-75
2021/03/04 09:48:35;;;;;;;;;;;;;;;22.03;25.22;98372.47;5060271;28;686;-75
2021/03/04 09:51:01;;;;;;;;;;;;;;;22.44;24.50;98362.66;5059851;28;877;-75
2021/03/04 09:53:27;;;;;;;;;;;;;;;22.52;24.46;98366.88;5059912;28;847;-75
2021/03/04 09:55:52;;;;;;;;;;;;;;;22.77;24.05;98361.38;5060079;28;1969;-75
2021/03/04 09:58:21;;;;;;;;;;;;;;;22.38;24.39;98358.72;5060323;28;660;-74
2021/03/04 10:00:54;;;;;;;;;;;;;;;21.46;26.00;98353.88;5060123;28;1199;-75
2021/03/04 10:03:19;;;;;;;;;;;;;;;21.88;25.34;98352.16;5063754;28;658;-74
2021/03/04 10:05:48;;;;;;;;;;;;;;;21.90;25.33;98343.22;5063964;28;900;-74
2021/03/04 10:08:14;;;;;;;;;;;;;;;21.81;25.31;98352.28;5079659;28;866;-74
2021/03/04 10:10:39;;;;;;;;;;;;;;;22.21;24.89;98347.38;5063993;28;836;-74
2021/03/04 10:13:05;;;;;;;;;;;;;;;22.37;24.73;98338.06;5063872;28;598;-74
2021/03/04 10:15:34;;;;;;;;;;;;;;;22.53;24.46;98345.78;5063898;28;693;-75
2021/03/04 10:18:05;;;;;;;;;;;;;;;22.00;24.88;98330.84;5064194;28;747;-74
2021/03/04 10:20:30;;;;;;;;;;;;;;;21.73;25.64;98334.66;5063558;28;994;-75
2021/03/04 10:22:56;;;;;;;;;;;;;;;21.78;25.35;98325.66;5063345;28;885;-74
2021/03/04 10:25:22;;;;;;;;;;;;;;;21.69;25.91;98327.47;5063627;28;977;-74
2021/03/04 10:27:48;;;;;;;;;;;;;;;21.95;25.65;98317.97;5063715;28;677;-74
2021/03/04 10:30:14;;;;;;;;;;;;;;;22.26;25.06;98315.66;5063864;28;674;-74
2021/03/04 10:32:39;;;;;;;;;;;;;;;22.50;24.71;98312.66;5063847;28;674;-75
2021/03/04 10:35:06;;;;;;;;;;;;;;;22.16;25.16;98305.38;5063322;28;940;-75
2021/03/04 10:37:32;;;;;;;;;;;;;;;21.88;25.29;98289.03;5063090;28;1906;-75
2021/03/04 10:39:57;;;;;;;;;;;;;;;21.72;25.71;98287.75;5063716;28;1045;-76
2021/03/04 10:42:23;;;;;;;;;;;;;;;21.55;25.88;98281.28;5063643;28;679;-73
2021/03/04 10:44:48;;;;;;;;;;;;;;;22.16;25.11;98273.41;5063272;28;693;-73
2021/03/04 10:47:14;;;;;;;;;;;;;;;22.32;25.08;98274.19;5063597;28;661;-74
2021/03/04 10:49:39;;;;;;;;;;;;;;;22.45;24.76;98271.47;5079328;28;1036;-75
2021/03/04 10:52:05;;;;;;;;;;;;;;;22.12;25.18;98264.19;5063248;28;898;-75
2021/03/04 10:54:30;;;;;;;;;;;;;;;21.73;25.63;98257.41;5063162;28;970;-75
2021/03/04 10:56:56;;;;;;;;;;;;;;;21.85;25.55;98256.69;5063587;28;1970;-76
2021/03/04 10:59:22;;;;;;;;;;;;;;;21.75;25.65;98252.88;5062904;28;1035;-75
2021/03/04 11:01:47;;;;;;;;;;;;;;;21.65;26.05;98248.25;5063028;28;674;-75
2021/03/04 11:04:13;;;;;;;;;;;;;;;22.09;25.46;98235.47;5062882;28;893;-75
2021/03/04 11:06:38;;;;;;;;;;;;;;;22.43;24.67;98230.59;5062827;28;907;-75
2021/03/04 11:09:04;;;;;;;;;;;;;;;22.46;24.66;98222.00;5062867;28;858;-75
2021/03/04 11:11:29;;;;;;;;;;;;;;;22.12;25.29;98222.47;5062935;28;681;-75
2021/03/04 11:13:55;;;;;;;;;;;;;;;21.96;25.62;98217.56;5062197;28;661;-75
2021/03/04 11:16:20;;;;;;;;;;;;;;;21.82;25.54;98213.06;5062686;28;2156;-75
2021/03/04 11:18:45;;;;;;;;;;;;;;;21.64;26.00;98197.72;5062647;28;1002;-75
2021/03/04 11:21:11;;;;;;;;;;;;;;;21.72;25.84;98199.16;5062529;28;912;-75
2021/03/04 11:23:36;;;;;;;;;;;;;;;21.53;26.12;98195.16;5062547;28;931;-75
2021/03/04 11:26:02;;;;;;;;;;;;;;;22.08;25.61;98182.09;5062580;28;671;-75
2021/03/04 11:28:28;;;;;;;;;;;;;;;22.45;24.70;98182.78;5062612;28;688;-75
2021/03/04 11:30:53;;;;;;;;;;;;;;;22.66;24.60;98176.50;5062453;28;690;-76
2021/03/04 11:33:20;;;;;;;;;;;;;;;22.13;25.06;98172.28;5062359;28;1019;-75
2021/03/04 11:35:46;;;;;;;;;;;;;;;21.84;25.53;98165.25;5062376;28;1901;-75
2021/03/04 11:38:11;;;;;;;;;;;;;;;21.65;25.76;98163.31;5062571;28;758;-76
2021/03/04 11:40:37;;;;;;;;;;;;;;;21.59;26.05;98165.06;5062317;28;586;-75
2021/03/04 11:43:02;;;;;;;;;;;;;;;21.78;25.96;98172.69;5062903;28;618;-75
2021/03/04 11:45:27;;;;;;;;;;;;;;;22.26;24.98;98156.94;5062476;28;684;-75
2021/03/04 11:48:02;;;;;;;;;;;;;;;22.56;24.72;98157.75;5061787;28;1001;-75
2021/03/04 11:50:27;;;;;;;;;;;;;;;22.29;24.86;98143.91;5061774;28;931;-75
2021/03/04 11:52:53;;;;;;;;;;;;;;;21.78;25.55;98141.53;5062701;28;1047;-75
2021/03/04 11:55:18;;;;;;;;;;;;;;;21.81;25.77;98132.19;5062322;28;693;-76
2021/03/04 11:57:44;;;;;;;;;;;;;;;21.31;26.53;98132.59;5061844;28;1902;-75
2021/03/04 12:00:10;;;;;;;;;;;;;;;20.44;25.94;97956.75;5062193;28;1188;-75
2021/03/04 12:02:35;;;;;;;;;;;;;;;22.05;25.46;98124.25;5061649;28;843;-75
2021/03/04 12:05:01;;;;;;;;;;;;;;;22.55;24.70;98133.47;5062131;28;888;-75
2021/03/04 12:07:26;;;;;;;;;;;;;;;22.58;24.50;98126.88;5061816;28;775;-75
2021/03/04 12:09:52;;;;;;;;;;;;;;;22.21;25.13;98123.44;5061899;28;654;-76
2021/03/04 12:12:17;;;;;;;;;;;;;;;21.93;25.33;98110.03;5062049;28;614;-76
2021/03/04 12:14:43;;;;;;;;;;;;;;;21.58;25.97;98118.19;5061602;28;665;-75
2021/03/04 12:17:08;;;;;;;;;;;;;;;21.72;25.90;98105.72;5061691;28;1972;-75
2021/03/04 12:19:34;;;;;;;;;;;;;;;21.70;25.86;98103.31;5061249;28;823;-75
2021/03/04 12:21:59;;;;;;;;;;;;;;;22.01;25.29;98088.75;5061445;28;870;-75
2021/03/04 12:24:25;;;;;;;;;;;;;;;22.39;25.03;98094.63;5061548;28;618;-76
2021/03/04 12:26:52;;;;;;;;;;;;;;;22.41;24.69;98094.16;5060751;28;750;-75
2021/03/04 12:29:17;;;;;;;;;;;;;;;22.17;25.10;98097.25;5061606;28;710;-75
2021/03/04 12:31:43;;;;;;;;;;;;;;;21.94;25.75;98094.63;5061421;28;1022;-76
2021/03/04 12:34:08;;;;;;;;;;;;;;;21.64;26.07;98088.09;5060963;28;942;-76
2021/03/04 12:36:34;;;;;;;;;;;;;;;21.80;25.70;98079.56;5060979;28;2010;-75
2021/03/04 12:38:59;;;;;;;;;;;;;;;21.77;25.82;98083.31;5061592;28;659;-75
2021/03/04 12:41:25;;;;;;;;;;;;;;;21.66;25.86;98068.63;5061469;28;602;-75
2021/03/04 12:43:51;;;;;;;;;;;;;;;22.18;25.29;98070.50;5061539;28;667;-75
2021/03/04 12:46:16;;;;;;;;;;;;;;;22.42;24.83;98073.06;5061133;28;931;-75
2021/03/04 12:48:42;;;;;;;;;;;;;;;22.56;24.57;98067.00;5060643;28;813;-75
2021/03/04 12:51:07;;;;;;;;;;;;;;;21.81;25.81;98069.03;5060889;28;1000;-75
2021/03/04 12:53:33;;;;;;;;;;;;;;;21.94;25.46;98072.75;5061301;28;844;-75
2021/03/04 12:55:58;;;;;;;;;;;;;;;21.47;26.15;98075.97;5076664;28;1906;-75
2021/03/04 12:58:24;;;;;;;;;;;;;;;21.68;26.12;98060.47;5060775;28;825;-75
2021/03/04 13:00:49;;;;;;;;;;;;;;;21.47;26.41;98066.69;5060743;28;1067;-75